sensor_id;sensor_type;location;lat;lon;timestamp;P1;durP1;ratioP1;P2;durP2;ratioP2
17133;SDS011;8682;52.120;5.252;2022-11-02T00:00:46;110.30;;;83.30;;
17133;SDS011;8682;52.120;5.252;2022-11-02T00:03:13;104.50;;;91.83;;
17133;SDS011;8682;52.120;5.252;2022-11-02T00:05:40;82.67;;;74.53;;
17133;SDS011;8682;52.120;5.252;2022-11-02T00:08:07;86.40;;;77.20;;
17133;SDS011;8682;52.120;5.252;2022-11-02T00:10:35;89.20;;;78.30;;
17133;SDS011;8682;52.120;5.252;2022-11-02T00:13:03;107.87;;;82.97;;
17133;SDS011;8682;52.120;5.252;2022-11-02T00:15:31;97.10;;;73.23;;
17133;SDS011;8682;52.120;5.252;2022-11-02T00:17:59;93.47;;;74.83;;
17133;SDS011;8682;52.120;5.252;2022-11-02T00:20:28;96.67;;;78.77;;
17133;SDS011;8682;52.120;5.252;2022-11-02T00:22:56;99.90;;;83.17;;
17133;SDS011;8682;52.120;5.252;2022-11-02T00:25:24;80.43;;;71.17;;
17133;SDS011;8682;52.120;5.252;2022-11-02T00:27:51;107.40;;;80.33;;
17133;SDS011;8682;52.120;5.252;2022-11-02T00:30:20;105.87;;;86.20;;
17133;SDS011;8682;52.120;5.252;2022-11-02T00:32:47;105.37;;;85.83;;
17133;SDS011;8682;52.120;5.252;2022-11-02T00:35:14;96.20;;;79.90;;
17133;SDS011;8682;52.120;5.252;2022-11-02T00:37:41;87.43;;;77.40;;
17133;SDS011;8682;52.120;5.252;2022-11-02T00:40:09;91.17;;;80.63;;
17133;SDS011;8682;52.120;5.252;2022-11-02T00:42:36;90.93;;;79.63;;
17133;SDS011;8682;52.120;5.252;2022-11-02T00:45:04;89.57;;;77.83;;
17133;SDS011;8682;52.120;5.252;2022-11-02T00:47:32;103.07;;;85.03;;
17133;SDS011;8682;52.120;5.252;2022-11-02T00:50:00;92.23;;;79.53;;
17133;SDS011;8682;52.120;5.252;2022-11-02T00:52:27;98.03;;;85.13;;
17133;SDS011;8682;52.120;5.252;2022-11-02T00:54:54;101.13;;;77.87;;
17133;SDS011;8682;52.120;5.252;2022-11-02T00:57:21;85.43;;;72.60;;
17133;SDS011;8682;52.120;5.252;2022-11-02T00:59:48;83.37;;;73.83;;
17133;SDS011;8682;52.120;5.252;2022-11-02T01:02:15;104.93;;;85.53;;
17133;SDS011;8682;52.120;5.252;2022-11-02T01:04:44;99.60;;;78.07;;
17133;SDS011;8682;52.120;5.252;2022-11-02T01:07:11;113.70;;;95.50;;
17133;SDS011;8682;52.120;5.252;2022-11-02T01:09:38;107.43;;;88.93;;
17133;SDS011;8682;52.120;5.252;2022-11-02T01:12:05;100.90;;;87.87;;
17133;SDS011;8682;52.120;5.252;2022-11-02T01:14:33;92.13;;;81.17;;
17133;SDS011;8682;52.120;5.252;2022-11-02T01:17:00;114.17;;;84.57;;
17133;SDS011;8682;52.120;5.252;2022-11-02T01:19:28;68.53;;;61.07;;
17133;SDS011;8682;52.120;5.252;2022-11-02T01:21:57;84.30;;;69.07;;
17133;SDS011;8682;52.120;5.252;2022-11-02T01:24:24;102.07;;;74.43;;
17133;SDS011;8682;52.120;5.252;2022-11-02T01:26:51;90.77;;;69.13;;
17133;SDS011;8682;52.120;5.252;2022-11-02T01:29:19;109.33;;;79.67;;
17133;SDS011;8682;52.120;5.252;2022-11-02T01:31:46;101.57;;;77.53;;
17133;SDS011;8682;52.120;5.252;2022-11-02T01:34:13;96.53;;;76.47;;
17133;SDS011;8682;52.120;5.252;2022-11-02T01:36:42;77.33;;;67.00;;
17133;SDS011;8682;52.120;5.252;2022-11-02T01:39:11;110.40;;;86.60;;
17133;SDS011;8682;52.120;5.252;2022-11-02T01:41:39;115.23;;;71.20;;
17133;SDS011;8682;52.120;5.252;2022-11-02T01:44:20;105.03;;;63.93;;
17133;SDS011;8682;52.120;5.252;2022-11-02T01:46:52;102.23;;;76.63;;
17133;SDS011;8682;52.120;5.252;2022-11-02T01:49:20;99.37;;;75.03;;
17133;SDS011;8682;52.120;5.252;2022-11-02T01:51:48;99.00;;;79.30;;
17133;SDS011;8682;52.120;5.252;2022-11-02T01:54:17;87.57;;;64.53;;
17133;SDS011;8682;52.120;5.252;2022-11-02T01:56:48;89.70;;;70.93;;
17133;SDS011;8682;52.120;5.252;2022-11-02T01:59:18;109.63;;;79.77;;
17133;SDS011;8682;52.120;5.252;2022-11-02T02:01:46;102.17;;;70.00;;
17133;SDS011;8682;52.120;5.252;2022-11-02T02:04:14;118.63;;;82.70;;
17133;SDS011;8682;52.120;5.252;2022-11-02T02:06:41;98.23;;;77.43;;
17133;SDS011;8682;52.120;5.252;2022-11-02T02:09:09;100.40;;;80.80;;
17133;SDS011;8682;52.120;5.252;2022-11-02T02:11:40;124.27;;;84.40;;
17133;SDS011;8682;52.120;5.252;2022-11-02T02:14:08;133.67;;;83.43;;
17133;SDS011;8682;52.120;5.252;2022-11-02T02:16:41;139.17;;;96.87;;
17133;SDS011;8682;52.120;5.252;2022-11-02T02:19:11;117.63;;;88.20;;
17133;SDS011;8682;52.120;5.252;2022-11-02T02:21:41;120.77;;;74.60;;
17133;SDS011;8682;52.120;5.252;2022-11-02T02:24:13;151.37;;;93.70;;
17133;SDS011;8682;52.120;5.252;2022-11-02T02:26:57;124.77;;;88.17;;
17133;SDS011;8682;52.120;5.252;2022-11-02T02:29:28;124.53;;;79.23;;
17133;SDS011;8682;52.120;5.252;2022-11-02T02:32:00;126.33;;;90.37;;
17133;SDS011;8682;52.120;5.252;2022-11-02T02:34:29;120.63;;;74.97;;
17133;SDS011;8682;52.120;5.252;2022-11-02T02:37:00;108.13;;;78.20;;
17133;SDS011;8682;52.120;5.252;2022-11-02T02:39:33;120.80;;;77.50;;
17133;SDS011;8682;52.120;5.252;2022-11-02T02:42:04;136.03;;;92.67;;
17133;SDS011;8682;52.120;5.252;2022-11-02T02:44:35;114.43;;;81.10;;
17133;SDS011;8682;52.120;5.252;2022-11-02T02:47:03;104.13;;;77.93;;
17133;SDS011;8682;52.120;5.252;2022-11-02T02:49:32;113.70;;;78.03;;
17133;SDS011;8682;52.120;5.252;2022-11-02T02:52:01;108.07;;;81.20;;
17133;SDS011;8682;52.120;5.252;2022-11-02T02:54:29;118.77;;;82.60;;
17133;SDS011;8682;52.120;5.252;2022-11-02T02:56:59;102.50;;;71.83;;
17133;SDS011;8682;52.120;5.252;2022-11-02T02:59:28;89.17;;;70.50;;
17133;SDS011;8682;52.120;5.252;2022-11-02T03:01:58;123.03;;;84.00;;
17133;SDS011;8682;52.120;5.252;2022-11-02T03:04:26;108.90;;;86.07;;
17133;SDS011;8682;52.120;5.252;2022-11-02T03:06:53;106.80;;;76.77;;
17133;SDS011;8682;52.120;5.252;2022-11-02T03:09:23;118.37;;;73.70;;
17133;SDS011;8682;52.120;5.252;2022-11-02T03:11:55;117.90;;;79.37;;
17133;SDS011;8682;52.120;5.252;2022-11-02T03:14:31;98.03;;;77.80;;
17133;SDS011;8682;52.120;5.252;2022-11-02T03:17:05;72.20;;;63.50;;
17133;SDS011;8682;52.120;5.252;2022-11-02T03:19:35;111.07;;;86.10;;
17133;SDS011;8682;52.120;5.252;2022-11-02T03:22:05;99.40;;;80.87;;
17133;SDS011;8682;52.120;5.252;2022-11-02T03:24:35;82.73;;;63.23;;
17133;SDS011;8682;52.120;5.252;2022-11-02T03:27:06;111.67;;;79.70;;
17133;SDS011;8682;52.120;5.252;2022-11-02T03:29:36;94.30;;;72.40;;
17133;SDS011;8682;52.120;5.252;2022-11-02T03:32:06;98.43;;;76.90;;
17133;SDS011;8682;52.120;5.252;2022-11-02T03:34:36;88.23;;;68.70;;
17133;SDS011;8682;52.120;5.252;2022-11-02T03:37:06;81.13;;;72.33;;
17133;SDS011;8682;52.120;5.252;2022-11-02T03:39:39;90.27;;;68.13;;
17133;SDS011;8682;52.120;5.252;2022-11-02T03:42:08;90.90;;;64.03;;
17133;SDS011;8682;52.120;5.252;2022-11-02T03:44:36;99.67;;;68.17;;
17133;SDS011;8682;52.120;5.252;2022-11-02T03:47:06;92.33;;;76.33;;
17133;SDS011;8682;52.120;5.252;2022-11-02T03:49:34;103.60;;;76.50;;
17133;SDS011;8682;52.120;5.252;2022-11-02T03:52:02;117.77;;;87.33;;
17133;SDS011;8682;52.120;5.252;2022-11-02T03:54:34;111.00;;;73.07;;
17133;SDS011;8682;52.120;5.252;2022-11-02T03:57:05;119.40;;;88.20;;
17133;SDS011;8682;52.120;5.252;2022-11-02T03:59:34;135.03;;;89.60;;
17133;SDS011;8682;52.120;5.252;2022-11-02T04:02:01;143.63;;;88.23;;
17133;SDS011;8682;52.120;5.252;2022-11-02T04:04:29;118.13;;;86.27;;
17133;SDS011;8682;52.120;5.252;2022-11-02T04:06:56;129.53;;;88.57;;
17133;SDS011;8682;52.120;5.252;2022-11-02T04:09:23;145.57;;;103.20;;
17133;SDS011;8682;52.120;5.252;2022-11-02T04:11:51;143.37;;;113.93;;
17133;SDS011;8682;52.120;5.252;2022-11-02T04:14:35;124.60;;;91.97;;
17133;SDS011;8682;52.120;5.252;2022-11-02T04:17:03;166.17;;;95.77;;
17133;SDS011;8682;52.120;5.252;2022-11-02T04:19:49;142.03;;;102.40;;
17133;SDS011;8682;52.120;5.252;2022-11-02T04:22:16;112.03;;;89.30;;
17133;SDS011;8682;52.120;5.252;2022-11-02T04:25:01;109.90;;;84.10;;
17133;SDS011;8682;52.120;5.252;2022-11-02T04:27:42;123.27;;;91.93;;
17133;SDS011;8682;52.120;5.252;2022-11-02T04:30:10;99.97;;;73.37;;
17133;SDS011;8682;52.120;5.252;2022-11-02T04:32:37;104.43;;;71.83;;
17133;SDS011;8682;52.120;5.252;2022-11-02T04:35:23;123.37;;;81.97;;
17133;SDS011;8682;52.120;5.252;2022-11-02T04:37:51;113.30;;;79.40;;
17133;SDS011;8682;52.120;5.252;2022-11-02T04:40:35;112.77;;;79.20;;
17133;SDS011;8682;52.120;5.252;2022-11-02T04:43:02;124.10;;;82.00;;
17133;SDS011;8682;52.120;5.252;2022-11-02T04:45:30;100.30;;;72.77;;
17133;SDS011;8682;52.120;5.252;2022-11-02T04:48:00;137.27;;;96.63;;
17133;SDS011;8682;52.120;5.252;2022-11-02T04:50:29;107.37;;;73.70;;
17133;SDS011;8682;52.120;5.252;2022-11-02T04:52:56;99.70;;;71.70;;
17133;SDS011;8682;52.120;5.252;2022-11-02T04:55:23;128.77;;;74.87;;
17133;SDS011;8682;52.120;5.252;2022-11-02T04:57:51;129.30;;;85.40;;
17133;SDS011;8682;52.120;5.252;2022-11-02T05:00:18;113.27;;;76.63;;
17133;SDS011;8682;52.120;5.252;2022-11-02T05:02:45;94.57;;;73.13;;
17133;SDS011;8682;52.120;5.252;2022-11-02T05:05:13;117.80;;;87.63;;
17133;SDS011;8682;52.120;5.252;2022-11-02T05:07:41;116.77;;;80.33;;
17133;SDS011;8682;52.120;5.252;2022-11-02T05:10:08;101.50;;;73.67;;
17133;SDS011;8682;52.120;5.252;2022-11-02T05:12:36;128.60;;;82.00;;
17133;SDS011;8682;52.120;5.252;2022-11-02T05:15:03;143.63;;;98.27;;
17133;SDS011;8682;52.120;5.252;2022-11-02T05:17:30;109.93;;;89.17;;
17133;SDS011;8682;52.120;5.252;2022-11-02T05:19:57;150.93;;;92.17;;
17133;SDS011;8682;52.120;5.252;2022-11-02T05:22:24;118.07;;;85.60;;
17133;SDS011;8682;52.120;5.252;2022-11-02T05:24:53;121.93;;;89.90;;
17133;SDS011;8682;52.120;5.252;2022-11-02T05:27:20;125.63;;;85.07;;
17133;SDS011;8682;52.120;5.252;2022-11-02T05:29:47;106.53;;;83.50;;
17133;SDS011;8682;52.120;5.252;2022-11-02T05:32:14;143.60;;;103.70;;
17133;SDS011;8682;52.120;5.252;2022-11-02T05:34:41;135.20;;;91.63;;
17133;SDS011;8682;52.120;5.252;2022-11-02T05:37:09;122.37;;;87.97;;
17133;SDS011;8682;52.120;5.252;2022-11-02T05:39:36;138.60;;;89.47;;
17133;SDS011;8682;52.120;5.252;2022-11-02T05:42:04;98.83;;;81.20;;
17133;SDS011;8682;52.120;5.252;2022-11-02T05:44:31;116.30;;;98.13;;
17133;SDS011;8682;52.120;5.252;2022-11-02T05:46:59;141.23;;;105.43;;
17133;SDS011;8682;52.120;5.252;2022-11-02T05:49:26;116.70;;;86.80;;
17133;SDS011;8682;52.120;5.252;2022-11-02T05:51:53;124.10;;;78.20;;
17133;SDS011;8682;52.120;5.252;2022-11-02T05:54:20;112.73;;;88.83;;
17133;SDS011;8682;52.120;5.252;2022-11-02T05:56:48;114.60;;;87.13;;
17133;SDS011;8682;52.120;5.252;2022-11-02T05:59:16;181.52;;;172.02;;
17133;SDS011;8682;52.120;5.252;2022-11-02T06:01:44;107.50;;;96.63;;
17133;SDS011;8682;52.120;5.252;2022-11-02T06:04:11;90.93;;;78.73;;
17133;SDS011;8682;52.120;5.252;2022-11-02T06:06:38;112.13;;;78.23;;
17133;SDS011;8682;52.120;5.252;2022-11-02T06:09:05;114.93;;;82.20;;
17133;SDS011;8682;52.120;5.252;2022-11-02T06:11:32;113.87;;;80.33;;
17133;SDS011;8682;52.120;5.252;2022-11-02T06:13:59;102.07;;;76.33;;
17133;SDS011;8682;52.120;5.252;2022-11-02T06:16:29;124.17;;;79.13;;
17133;SDS011;8682;52.120;5.252;2022-11-02T06:18:56;97.80;;;71.50;;
17133;SDS011;8682;52.120;5.252;2022-11-02T06:21:23;121.43;;;82.17;;
17133;SDS011;8682;52.120;5.252;2022-11-02T06:23:50;113.37;;;79.80;;
17133;SDS011;8682;52.120;5.252;2022-11-02T06:26:17;122.93;;;73.73;;
17133;SDS011;8682;52.120;5.252;2022-11-02T06:28:45;114.50;;;72.53;;
17133;SDS011;8682;52.120;5.252;2022-11-02T06:31:12;132.97;;;77.63;;
17133;SDS011;8682;52.120;5.252;2022-11-02T06:33:42;106.17;;;80.80;;
17133;SDS011;8682;52.120;5.252;2022-11-02T06:36:10;117.93;;;85.47;;
17133;SDS011;8682;52.120;5.252;2022-11-02T06:38:38;111.10;;;81.90;;
17133;SDS011;8682;52.120;5.252;2022-11-02T06:41:06;124.37;;;84.73;;
17133;SDS011;8682;52.120;5.252;2022-11-02T06:43:33;141.20;;;87.53;;
17133;SDS011;8682;52.120;5.252;2022-11-02T06:46:02;123.83;;;82.17;;
17133;SDS011;8682;52.120;5.252;2022-11-02T06:48:29;133.80;;;83.37;;
17133;SDS011;8682;52.120;5.252;2022-11-02T06:50:58;156.30;;;89.20;;
17133;SDS011;8682;52.120;5.252;2022-11-02T06:53:25;151.80;;;101.57;;
17133;SDS011;8682;52.120;5.252;2022-11-02T06:55:53;150.13;;;97.83;;
17133;SDS011;8682;52.120;5.252;2022-11-02T06:58:20;148.40;;;91.30;;
17133;SDS011;8682;52.120;5.252;2022-11-02T07:00:48;120.87;;;85.57;;
17133;SDS011;8682;52.120;5.252;2022-11-02T07:03:15;141.80;;;92.57;;
17133;SDS011;8682;52.120;5.252;2022-11-02T07:05:42;140.53;;;90.20;;
17133;SDS011;8682;52.120;5.252;2022-11-02T07:08:17;135.20;;;87.53;;
17133;SDS011;8682;52.120;5.252;2022-11-02T07:10:44;130.70;;;84.17;;
17133;SDS011;8682;52.120;5.252;2022-11-02T07:13:11;120.03;;;79.43;;
17133;SDS011;8682;52.120;5.252;2022-11-02T07:15:38;112.17;;;85.13;;
17133;SDS011;8682;52.120;5.252;2022-11-02T07:18:05;113.83;;;80.23;;
17133;SDS011;8682;52.120;5.252;2022-11-02T07:20:33;130.10;;;87.70;;
17133;SDS011;8682;52.120;5.252;2022-11-02T07:23:01;104.97;;;83.07;;
17133;SDS011;8682;52.120;5.252;2022-11-02T07:25:30;98.70;;;71.87;;
17133;SDS011;8682;52.120;5.252;2022-11-02T07:27:58;125.17;;;88.73;;
17133;SDS011;8682;52.120;5.252;2022-11-02T07:30:25;155.83;;;92.87;;
17133;SDS011;8682;52.120;5.252;2022-11-02T07:32:53;147.50;;;118.73;;
17133;SDS011;8682;52.120;5.252;2022-11-02T07:35:20;153.40;;;136.70;;
17133;SDS011;8682;52.120;5.252;2022-11-02T07:37:53;219.90;;;155.43;;
17133;SDS011;8682;52.120;5.252;2022-11-02T07:40:21;206.10;;;154.33;;
17133;SDS011;8682;52.120;5.252;2022-11-02T07:42:49;222.13;;;178.43;;
17133;SDS011;8682;52.120;5.252;2022-11-02T07:45:18;226.80;;;186.63;;
17133;SDS011;8682;52.120;5.252;2022-11-02T07:47:46;195.00;;;174.27;;
17133;SDS011;8682;52.120;5.252;2022-11-02T07:50:14;223.30;;;198.17;;
17133;SDS011;8682;52.120;5.252;2022-11-02T07:52:43;188.33;;;161.07;;
17133;SDS011;8682;52.120;5.252;2022-11-02T07:55:10;215.57;;;168.77;;
17133;SDS011;8682;52.120;5.252;2022-11-02T07:57:38;225.27;;;163.93;;
17133;SDS011;8682;52.120;5.252;2022-11-02T08:00:08;208.57;;;181.80;;
17133;SDS011;8682;52.120;5.252;2022-11-02T08:02:35;220.50;;;181.07;;
17133;SDS011;8682;52.120;5.252;2022-11-02T08:05:02;241.53;;;212.00;;
17133;SDS011;8682;52.120;5.252;2022-11-02T08:07:30;267.80;;;205.87;;
17133;SDS011;8682;52.120;5.252;2022-11-02T08:09:57;206.67;;;172.90;;
17133;SDS011;8682;52.120;5.252;2022-11-02T08:12:24;248.67;;;221.87;;
17133;SDS011;8682;52.120;5.252;2022-11-02T08:14:51;363.73;;;275.23;;
17133;SDS011;8682;52.120;5.252;2022-11-02T08:17:19;365.50;;;302.60;;
17133;SDS011;8682;52.120;5.252;2022-11-02T08:19:47;319.17;;;266.07;;
17133;SDS011;8682;52.120;5.252;2022-11-02T08:22:14;355.17;;;299.70;;
17133;SDS011;8682;52.120;5.252;2022-11-02T08:24:41;356.60;;;317.87;;
17133;SDS011;8682;52.120;5.252;2022-11-02T08:27:08;690.57;;;509.93;;
17133;SDS011;8682;52.120;5.252;2022-11-02T08:29:35;618.43;;;490.03;;
17133;SDS011;8682;52.120;5.252;2022-11-02T08:32:02;809.17;;;594.13;;
17133;SDS011;8682;52.120;5.252;2022-11-02T08:34:31;994.00;;;675.60;;
17133;SDS011;8682;52.120;5.252;2022-11-02T08:36:58;1088.00;;;657.60;;
17133;SDS011;8682;52.120;5.252;2022-11-02T08:39:25;921.07;;;668.00;;
17133;SDS011;8682;52.120;5.252;2022-11-02T08:41:53;897.87;;;622.93;;
17133;SDS011;8682;52.120;5.252;2022-11-02T08:44:20;989.30;;;632.60;;
17133;SDS011;8682;52.120;5.252;2022-11-02T08:46:47;1560.43;;;894.53;;
17133;SDS011;8682;52.120;5.252;2022-11-02T08:49:14;1996.50;;;953.83;;
17133;SDS011;8682;52.120;5.252;2022-11-02T08:51:44;1939.33;;;960.40;;
17133;SDS011;8682;52.120;5.252;2022-11-02T08:54:11;1892.77;;;835.63;;
17133;SDS011;8682;52.120;5.252;2022-11-02T08:56:38;1999.90;;;999.90;;
17133;SDS011;8682;52.120;5.252;2022-11-02T08:59:05;1999.90;;;870.00;;
17133;SDS011;8682;52.120;5.252;2022-11-02T09:01:33;1989.43;;;887.47;;
17133;SDS011;8682;52.120;5.252;2022-11-02T09:04:00;1670.37;;;890.73;;
17133;SDS011;8682;52.120;5.252;2022-11-02T09:06:27;1999.90;;;976.17;;
17133;SDS011;8682;52.120;5.252;2022-11-02T09:08:55;1934.33;;;918.53;;
17133;SDS011;8682;52.120;5.252;2022-11-02T09:11:22;1991.37;;;901.47;;
17133;SDS011;8682;52.120;5.252;2022-11-02T09:13:49;1952.33;;;889.67;;
17133;SDS011;8682;52.120;5.252;2022-11-02T09:16:17;1746.13;;;913.47;;
17133;SDS011;8682;52.120;5.252;2022-11-02T09:18:44;1721.80;;;895.63;;
17133;SDS011;8682;52.120;5.252;2022-11-02T09:21:11;1990.10;;;973.47;;
17133;SDS011;8682;52.120;5.252;2022-11-02T09:23:38;1999.90;;;933.17;;
17133;SDS011;8682;52.120;5.252;2022-11-02T09:26:06;1999.90;;;940.83;;
17133;SDS011;8682;52.120;5.252;2022-11-02T09:28:34;1999.90;;;990.27;;
17133;SDS011;8682;52.120;5.252;2022-11-02T09:31:02;1903.53;;;918.23;;
17133;SDS011;8682;52.120;5.252;2022-11-02T09:33:29;1532.67;;;801.50;;
17133;SDS011;8682;52.120;5.252;2022-11-02T09:36:00;1445.83;;;825.10;;
17133;SDS011;8682;52.120;5.252;2022-11-02T09:38:27;1985.00;;;912.53;;
17133;SDS011;8682;52.120;5.252;2022-11-02T09:41:00;1999.90;;;999.90;;
17133;SDS011;8682;52.120;5.252;2022-11-02T09:43:33;1999.90;;;999.90;;
17133;SDS011;8682;52.120;5.252;2022-11-02T09:46:03;1999.90;;;999.90;;
17133;SDS011;8682;52.120;5.252;2022-11-02T09:48:32;1999.90;;;983.80;;
17133;SDS011;8682;52.120;5.252;2022-11-02T09:51:01;1999.90;;;956.83;;
17133;SDS011;8682;52.120;5.252;2022-11-02T09:53:36;1999.90;;;921.37;;
17133;SDS011;8682;52.120;5.252;2022-11-02T09:56:05;1999.90;;;915.97;;
17133;SDS011;8682;52.120;5.252;2022-11-02T09:58:36;1999.90;;;999.90;;
17133;SDS011;8682;52.120;5.252;2022-11-02T10:01:07;1999.90;;;837.17;;
17133;SDS011;8682;52.120;5.252;2022-11-02T10:03:37;1999.90;;;910.07;;
17133;SDS011;8682;52.120;5.252;2022-11-02T10:06:08;1999.90;;;697.50;;
17133;SDS011;8682;52.120;5.252;2022-11-02T10:08:39;1999.90;;;856.87;;
17133;SDS011;8682;52.120;5.252;2022-11-02T10:11:12;1999.90;;;732.90;;
17133;SDS011;8682;52.120;5.252;2022-11-02T10:13:43;1999.90;;;732.57;;
17133;SDS011;8682;52.120;5.252;2022-11-02T10:16:13;1957.13;;;503.07;;
17133;SDS011;8682;52.120;5.252;2022-11-02T10:18:41;1999.90;;;758.07;;
17133;SDS011;8682;52.120;5.252;2022-11-02T10:21:15;1999.90;;;679.97;;
17133;SDS011;8682;52.120;5.252;2022-11-02T10:23:46;1999.90;;;702.03;;
17133;SDS011;8682;52.120;5.252;2022-11-02T10:26:15;1999.90;;;626.00;;
17133;SDS011;8682;52.120;5.252;2022-11-02T10:28:46;1999.90;;;611.27;;
17133;SDS011;8682;52.120;5.252;2022-11-02T10:31:17;1325.37;;;325.50;;
17133;SDS011;8682;52.120;5.252;2022-11-02T10:33:46;1568.67;;;724.13;;
17133;SDS011;8682;52.120;5.252;2022-11-02T10:36:16;751.93;;;189.73;;
17133;SDS011;8682;52.120;5.252;2022-11-02T10:38:51;1063.60;;;268.93;;
17133;SDS011;8682;52.120;5.252;2022-11-02T10:41:25;1089.97;;;310.60;;
17133;SDS011;8682;52.120;5.252;2022-11-02T10:44:04;1681.63;;;465.30;;
17133;SDS011;8682;52.120;5.252;2022-11-02T10:46:41;1999.90;;;999.90;;
17133;SDS011;8682;52.120;5.252;2022-11-02T10:49:11;1999.90;;;999.90;;
17133;SDS011;8682;52.120;5.252;2022-11-02T10:51:40;767.70;;;371.83;;
17133;SDS011;8682;52.120;5.252;2022-11-02T10:54:10;1999.90;;;999.90;;
17133;SDS011;8682;52.120;5.252;2022-11-02T10:56:37;1999.90;;;999.90;;
17133;SDS011;8682;52.120;5.252;2022-11-02T10:59:10;1999.90;;;999.90;;
17133;SDS011;8682;52.120;5.252;2022-11-02T11:01:43;1999.90;;;999.90;;
17133;SDS011;8682;52.120;5.252;2022-11-02T11:04:18;1999.90;;;999.90;;
17133;SDS011;8682;52.120;5.252;2022-11-02T11:06:46;1717.03;;;745.40;;
17133;SDS011;8682;52.120;5.252;2022-11-02T11:09:14;1799.57;;;772.00;;
17133;SDS011;8682;52.120;5.252;2022-11-02T11:11:45;1999.90;;;999.90;;
17133;SDS011;8682;52.120;5.252;2022-11-02T11:14:20;1999.90;;;999.90;;
17133;SDS011;8682;52.120;5.252;2022-11-02T11:16:48;1999.90;;;999.90;;
17133;SDS011;8682;52.120;5.252;2022-11-02T11:19:26;1999.90;;;999.90;;
17133;SDS011;8682;52.120;5.252;2022-11-02T11:21:55;1999.90;;;999.90;;
17133;SDS011;8682;52.120;5.252;2022-11-02T11:24:24;1999.90;;;999.90;;
17133;SDS011;8682;52.120;5.252;2022-11-02T11:27:02;1999.90;;;999.90;;
17133;SDS011;8682;52.120;5.252;2022-11-02T11:29:32;1999.90;;;999.90;;
17133;SDS011;8682;52.120;5.252;2022-11-02T11:31:59;1999.90;;;999.90;;
17133;SDS011;8682;52.120;5.252;2022-11-02T11:34:27;1999.90;;;999.90;;
17133;SDS011;8682;52.120;5.252;2022-11-02T11:37:03;1571.87;;;718.43;;
17133;SDS011;8682;52.120;5.252;2022-11-02T11:39:30;1999.90;;;999.90;;
17133;SDS011;8682;52.120;5.252;2022-11-02T11:41:58;1999.90;;;999.90;;
17133;SDS011;8682;52.120;5.252;2022-11-02T11:44:27;1999.90;;;999.90;;
17133;SDS011;8682;52.120;5.252;2022-11-02T11:46:56;1999.90;;;999.90;;
17133;SDS011;8682;52.120;5.252;2022-11-02T11:49:25;1999.90;;;999.90;;
17133;SDS011;8682;52.120;5.252;2022-11-02T11:51:54;1999.90;;;999.90;;
17133;SDS011;8682;52.120;5.252;2022-11-02T11:54:25;1999.90;;;999.90;;
17133;SDS011;8682;52.120;5.252;2022-11-02T11:56:53;1999.90;;;999.90;;
17133;SDS011;8682;52.120;5.252;2022-11-02T11:59:25;1999.90;;;999.90;;
17133;SDS011;8682;52.120;5.252;2022-11-02T12:01:53;1999.90;;;999.90;;
17133;SDS011;8682;52.120;5.252;2022-11-02T12:04:29;1999.90;;;999.90;;
17133;SDS011;8682;52.120;5.252;2022-11-02T12:07:01;1999.90;;;999.90;;
17133;SDS011;8682;52.120;5.252;2022-11-02T12:09:32;1999.90;;;999.90;;
17133;SDS011;8682;52.120;5.252;2022-11-02T12:12:00;1999.90;;;999.90;;
17133;SDS011;8682;52.120;5.252;2022-11-02T12:14:34;1999.90;;;999.90;;
17133;SDS011;8682;52.120;5.252;2022-11-02T12:17:08;1999.90;;;999.90;;
17133;SDS011;8682;52.120;5.252;2022-11-02T12:19:44;1999.90;;;999.90;;
17133;SDS011;8682;52.120;5.252;2022-11-02T12:22:16;1999.90;;;999.90;;
17133;SDS011;8682;52.120;5.252;2022-11-02T12:24:46;1999.90;;;999.90;;
17133;SDS011;8682;52.120;5.252;2022-11-02T12:27:20;1999.90;;;999.90;;
17133;SDS011;8682;52.120;5.252;2022-11-02T12:35:26;1999.90;;;999.90;;
17133;SDS011;8682;52.120;5.252;2022-11-02T12:38:03;1999.90;;;999.90;;
17133;SDS011;8682;52.120;5.252;2022-11-02T12:40:40;1999.90;;;999.90;;
17133;SDS011;8682;52.120;5.252;2022-11-02T12:43:13;1999.90;;;999.90;;
17133;SDS011;8682;52.120;5.252;2022-11-02T12:45:44;1999.90;;;999.90;;
17133;SDS011;8682;52.120;5.252;2022-11-02T12:48:17;1999.90;;;999.90;;
17133;SDS011;8682;52.120;5.252;2022-11-02T12:50:51;1999.90;;;999.90;;
17133;SDS011;8682;52.120;5.252;2022-11-02T12:53:29;1999.90;;;999.90;;
17133;SDS011;8682;52.120;5.252;2022-11-02T12:55:59;1999.90;;;999.90;;
17133;SDS011;8682;52.120;5.252;2022-11-02T12:58:28;1999.90;;;999.90;;
17133;SDS011;8682;52.120;5.252;2022-11-02T13:00:57;1999.90;;;999.90;;
17133;SDS011;8682;52.120;5.252;2022-11-02T13:03:29;1999.90;;;999.90;;
17133;SDS011;8682;52.120;5.252;2022-11-02T13:06:01;1999.90;;;999.90;;
17133;SDS011;8682;52.120;5.252;2022-11-02T13:08:32;1999.90;;;999.90;;
17133;SDS011;8682;52.120;5.252;2022-11-02T13:11:02;1999.90;;;999.90;;
17133;SDS011;8682;52.120;5.252;2022-11-02T13:13:32;1999.90;;;999.90;;
17133;SDS011;8682;52.120;5.252;2022-11-02T13:16:00;1999.90;;;999.90;;
17133;SDS011;8682;52.120;5.252;2022-11-02T13:18:29;1999.90;;;999.90;;
17133;SDS011;8682;52.120;5.252;2022-11-02T13:20:57;1999.90;;;999.90;;
17133;SDS011;8682;52.120;5.252;2022-11-02T13:23:27;1999.90;;;999.90;;
17133;SDS011;8682;52.120;5.252;2022-11-02T13:25:57;1999.90;;;999.90;;
17133;SDS011;8682;52.120;5.252;2022-11-02T13:28:28;1999.90;;;999.90;;
17133;SDS011;8682;52.120;5.252;2022-11-02T13:30:58;1999.90;;;999.90;;
17133;SDS011;8682;52.120;5.252;2022-11-02T13:33:25;1999.90;;;999.90;;
17133;SDS011;8682;52.120;5.252;2022-11-02T13:35:57;1999.90;;;999.90;;
17133;SDS011;8682;52.120;5.252;2022-11-02T13:38:26;1999.90;;;999.90;;
17133;SDS011;8682;52.120;5.252;2022-11-02T13:41:00;1999.90;;;999.90;;
17133;SDS011;8682;52.120;5.252;2022-11-02T13:43:37;1999.90;;;999.90;;
17133;SDS011;8682;52.120;5.252;2022-11-02T13:46:19;1999.90;;;999.90;;
17133;SDS011;8682;52.120;5.252;2022-11-02T13:48:58;1999.90;;;999.90;;
17133;SDS011;8682;52.120;5.252;2022-11-02T13:51:31;1999.90;;;999.90;;
17133;SDS011;8682;52.120;5.252;2022-11-02T13:54:00;1999.90;;;999.90;;
17133;SDS011;8682;52.120;5.252;2022-11-02T13:56:29;1999.90;;;999.90;;
17133;SDS011;8682;52.120;5.252;2022-11-02T13:58:58;1999.90;;;999.90;;
17133;SDS011;8682;52.120;5.252;2022-11-02T14:01:26;1999.90;;;999.90;;
17133;SDS011;8682;52.120;5.252;2022-11-02T14:03:54;1999.90;;;999.90;;
17133;SDS011;8682;52.120;5.252;2022-11-02T14:06:22;1999.90;;;999.90;;
17133;SDS011;8682;52.120;5.252;2022-11-02T14:08:51;1999.90;;;999.90;;
17133;SDS011;8682;52.120;5.252;2022-11-02T14:11:27;1999.90;;;999.90;;
17133;SDS011;8682;52.120;5.252;2022-11-02T14:16:57;1999.90;;;999.90;;
17133;SDS011;8682;52.120;5.252;2022-11-02T14:19:28;1999.90;;;999.90;;
17133;SDS011;8682;52.120;5.252;2022-11-02T14:27:31;1999.90;;;999.90;;
17133;SDS011;8682;52.120;5.252;2022-11-02T14:29:58;1999.90;;;999.90;;
17133;SDS011;8682;52.120;5.252;2022-11-02T14:32:33;1999.90;;;999.90;;
17133;SDS011;8682;52.120;5.252;2022-11-02T14:35:09;1999.90;;;999.90;;
17133;SDS011;8682;52.120;5.252;2022-11-02T14:37:43;1999.90;;;999.90;;